sensor_id;sensor_type;location;lat;lon;timestamp;P1;durP1;ratioP1;P2;durP2;ratioP2
61093;SDS011;46976;52.942;6.810;2023-09-07T00:00:48;9.68;;;6.63;;
61093;SDS011;46976;52.942;6.810;2023-09-07T00:03:14;10.20;;;6.78;;
61093;SDS011;46976;52.942;6.810;2023-09-07T00:05:40;10.27;;;6.90;;
61093;SDS011;46976;52.942;6.810;2023-09-07T00:08:06;9.68;;;6.95;;
61093;SDS011;46976;52.942;6.810;2023-09-07T00:10:32;10.85;;;7.03;;
61093;SDS011;46976;52.942;6.810;2023-09-07T00:13:02;10.68;;;6.95;;
61093;SDS011;46976;52.942;6.810;2023-09-07T00:15:28;9.00;;;6.95;;
61093;SDS011;46976;52.942;6.810;2023-09-07T00:17:55;9.82;;;6.60;;
61093;SDS011;46976;52.942;6.810;2023-09-07T00:20:21;9.60;;;6.80;;
61093;SDS011;46976;52.942;6.810;2023-09-07T00:22:47;11.73;;;7.00;;
61093;SDS011;46976;52.942;6.810;2023-09-07T00:25:13;8.93;;;6.10;;
61093;SDS011;46976;52.942;6.810;2023-09-07T00:27:38;10.23;;;6.78;;
61093;SDS011;46976;52.942;6.810;2023-09-07T00:30:04;11.27;;;6.75;;
61093;SDS011;46976;52.942;6.810;2023-09-07T00:32:32;10.10;;;7.38;;
61093;SDS011;46976;52.942;6.810;2023-09-07T00:34:58;10.02;;;7.13;;
61093;SDS011;46976;52.942;6.810;2023-09-07T00:37:24;10.07;;;6.65;;
61093;SDS011;46976;52.942;6.810;2023-09-07T00:39:50;12.00;;;7.05;;
61093;SDS011;46976;52.942;6.810;2023-09-07T00:42:17;11.53;;;7.07;;
61093;SDS011;46976;52.942;6.810;2023-09-07T00:44:43;10.40;;;7.20;;
61093;SDS011;46976;52.942;6.810;2023-09-07T00:47:09;9.88;;;7.00;;
61093;SDS011;46976;52.942;6.810;2023-09-07T00:49:34;9.75;;;6.85;;
61093;SDS011;46976;52.942;6.810;2023-09-07T00:52:01;10.07;;;7.45;;
61093;SDS011;46976;52.942;6.810;2023-09-07T00:54:26;9.57;;;7.03;;
61093;SDS011;46976;52.942;6.810;2023-09-07T00:56:53;10.23;;;7.07;;
61093;SDS011;46976;52.942;6.810;2023-09-07T00:59:20;9.93;;;7.10;;
61093;SDS011;46976;52.942;6.810;2023-09-07T01:01:45;10.82;;;7.28;;
61093;SDS011;46976;52.942;6.810;2023-09-07T01:04:11;11.57;;;6.90;;
61093;SDS011;46976;52.942;6.810;2023-09-07T01:06:38;10.50;;;6.30;;
61093;SDS011;46976;52.942;6.810;2023-09-07T01:09:14;10.88;;;6.50;;
61093;SDS011;46976;52.942;6.810;2023-09-07T01:11:44;10.35;;;6.65;;
61093;SDS011;46976;52.942;6.810;2023-09-07T01:14:09;9.70;;;6.70;;
61093;SDS011;46976;52.942;6.810;2023-09-07T01:16:35;9.10;;;7.10;;
61093;SDS011;46976;52.942;6.810;2023-09-07T01:19:04;8.68;;;6.47;;
61093;SDS011;46976;52.942;6.810;2023-09-07T01:21:35;9.85;;;7.43;;
61093;SDS011;46976;52.942;6.810;2023-09-07T01:24:03;9.48;;;6.90;;
61093;SDS011;46976;52.942;6.810;2023-09-07T01:26:31;10.02;;;6.70;;
61093;SDS011;46976;52.942;6.810;2023-09-07T01:28:56;10.27;;;7.18;;
61093;SDS011;46976;52.942;6.810;2023-09-07T01:31:25;11.13;;;7.22;;
61093;SDS011;46976;52.942;6.810;2023-09-07T01:33:51;11.85;;;7.03;;
61093;SDS011;46976;52.942;6.810;2023-09-07T01:36:17;9.10;;;6.47;;
61093;SDS011;46976;52.942;6.810;2023-09-07T01:38:42;11.07;;;7.10;;
61093;SDS011;46976;52.942;6.810;2023-09-07T01:41:08;9.60;;;7.40;;
61093;SDS011;46976;52.942;6.810;2023-09-07T01:43:34;9.85;;;6.75;;
61093;SDS011;46976;52.942;6.810;2023-09-07T01:46:00;10.23;;;7.50;;
61093;SDS011;46976;52.942;6.810;2023-09-07T01:48:26;11.18;;;7.15;;
61093;SDS011;46976;52.942;6.810;2023-09-07T01:50:52;10.73;;;7.10;;
61093;SDS011;46976;52.942;6.810;2023-09-07T01:53:19;10.13;;;7.60;;
61093;SDS011;46976;52.942;6.810;2023-09-07T01:55:44;9.90;;;7.35;;
61093;SDS011;46976;52.942;6.810;2023-09-07T01:58:10;12.18;;;8.27;;
61093;SDS011;46976;52.942;6.810;2023-09-07T02:00:36;17.15;;;7.90;;
61093;SDS011;46976;52.942;6.810;2023-09-07T02:03:04;10.50;;;7.55;;
61093;SDS011;46976;52.942;6.810;2023-09-07T02:05:30;10.05;;;7.50;;
61093;SDS011;46976;52.942;6.810;2023-09-07T02:07:57;10.30;;;8.05;;
61093;SDS011;46976;52.942;6.810;2023-09-07T02:10:23;10.45;;;7.65;;
61093;SDS011;46976;52.942;6.810;2023-09-07T02:12:49;10.68;;;7.68;;
61093;SDS011;46976;52.942;6.810;2023-09-07T02:15:14;11.05;;;7.38;;
61093;SDS011;46976;52.942;6.810;2023-09-07T02:17:40;9.70;;;7.20;;
61093;SDS011;46976;52.942;6.810;2023-09-07T02:20:10;9.75;;;7.63;;
61093;SDS011;46976;52.942;6.810;2023-09-07T02:22:37;11.25;;;7.65;;
61093;SDS011;46976;52.942;6.810;2023-09-07T02:25:03;10.48;;;7.70;;
61093;SDS011;46976;52.942;6.810;2023-09-07T02:27:30;10.68;;;8.35;;
61093;SDS011;46976;52.942;6.810;2023-09-07T02:30:00;11.32;;;8.23;;
61093;SDS011;46976;52.942;6.810;2023-09-07T02:32:27;9.82;;;7.88;;
61093;SDS011;46976;52.942;6.810;2023-09-07T02:34:53;11.73;;;7.82;;
61093;SDS011;46976;52.942;6.810;2023-09-07T02:37:18;11.18;;;8.20;;
61093;SDS011;46976;52.942;6.810;2023-09-07T02:39:44;11.25;;;9.15;;
61093;SDS011;46976;52.942;6.810;2023-09-07T02:42:10;12.18;;;8.48;;
61093;SDS011;46976;52.942;6.810;2023-09-07T02:44:35;11.45;;;7.97;;
61093;SDS011;46976;52.942;6.810;2023-09-07T02:47:01;11.45;;;8.50;;
61093;SDS011;46976;52.942;6.810;2023-09-07T02:49:27;10.35;;;7.80;;
61093;SDS011;46976;52.942;6.810;2023-09-07T02:51:53;10.32;;;8.13;;
61093;SDS011;46976;52.942;6.810;2023-09-07T02:54:19;11.15;;;7.95;;
61093;SDS011;46976;52.942;6.810;2023-09-07T02:56:44;10.52;;;8.13;;
61093;SDS011;46976;52.942;6.810;2023-09-07T02:59:10;12.82;;;9.15;;
61093;SDS011;46976;52.942;6.810;2023-09-07T03:01:38;10.73;;;9.00;;
61093;SDS011;46976;52.942;6.810;2023-09-07T03:04:04;11.35;;;8.52;;
61093;SDS011;46976;52.942;6.810;2023-09-07T03:06:30;12.02;;;8.80;;
61093;SDS011;46976;52.942;6.810;2023-09-07T03:08:56;11.15;;;8.38;;
61093;SDS011;46976;52.942;6.810;2023-09-07T03:11:22;10.57;;;8.25;;
61093;SDS011;46976;52.942;6.810;2023-09-07T03:13:48;10.50;;;7.72;;
61093;SDS011;46976;52.942;6.810;2023-09-07T03:16:14;10.50;;;8.18;;
61093;SDS011;46976;52.942;6.810;2023-09-07T03:18:40;11.75;;;8.43;;
61093;SDS011;46976;52.942;6.810;2023-09-07T03:21:05;11.38;;;8.05;;
61093;SDS011;46976;52.942;6.810;2023-09-07T03:23:31;11.48;;;8.35;;
61093;SDS011;46976;52.942;6.810;2023-09-07T03:25:58;9.93;;;7.65;;
61093;SDS011;46976;52.942;6.810;2023-09-07T03:28:24;10.75;;;7.93;;
61093;SDS011;46976;52.942;6.810;2023-09-07T03:30:51;11.40;;;8.10;;
61093;SDS011;46976;52.942;6.810;2023-09-07T03:33:17;12.23;;;8.20;;
61093;SDS011;46976;52.942;6.810;2023-09-07T03:35:43;11.65;;;8.50;;
61093;SDS011;46976;52.942;6.810;2023-09-07T03:38:08;10.10;;;8.20;;
61093;SDS011;46976;52.942;6.810;2023-09-07T03:40:34;11.80;;;8.25;;
61093;SDS011;46976;52.942;6.810;2023-09-07T03:43:00;10.43;;;8.15;;
61093;SDS011;46976;52.942;6.810;2023-09-07T03:45:25;11.80;;;8.25;;
61093;SDS011;46976;52.942;6.810;2023-09-07T03:47:51;10.88;;;8.00;;
61093;SDS011;46976;52.942;6.810;2023-09-07T03:50:17;10.73;;;8.35;;
61093;SDS011;46976;52.942;6.810;2023-09-07T03:52:42;10.80;;;8.18;;
61093;SDS011;46976;52.942;6.810;2023-09-07T03:55:08;11.48;;;8.63;;
61093;SDS011;46976;52.942;6.810;2023-09-07T03:57:34;12.60;;;8.77;;
61093;SDS011;46976;52.942;6.810;2023-09-07T03:59:59;11.80;;;8.88;;
61093;SDS011;46976;52.942;6.810;2023-09-07T04:02:25;12.38;;;9.35;;
61093;SDS011;46976;52.942;6.810;2023-09-07T04:04:52;12.98;;;9.05;;
61093;SDS011;46976;52.942;6.810;2023-09-07T04:07:18;12.18;;;8.73;;
61093;SDS011;46976;52.942;6.810;2023-09-07T04:09:45;11.52;;;8.80;;
61093;SDS011;46976;52.942;6.810;2023-09-07T04:12:11;12.43;;;8.85;;
61093;SDS011;46976;52.942;6.810;2023-09-07T04:14:37;11.82;;;9.20;;
61093;SDS011;46976;52.942;6.810;2023-09-07T04:17:03;12.50;;;9.15;;
61093;SDS011;46976;52.942;6.810;2023-09-07T04:19:29;11.75;;;9.20;;
61093;SDS011;46976;52.942;6.810;2023-09-07T04:21:56;11.25;;;8.68;;
61093;SDS011;46976;52.942;6.810;2023-09-07T04:24:22;12.40;;;9.02;;
61093;SDS011;46976;52.942;6.810;2023-09-07T04:26:48;12.35;;;9.60;;
61093;SDS011;46976;52.942;6.810;2023-09-07T04:29:14;13.25;;;9.65;;
61093;SDS011;46976;52.942;6.810;2023-09-07T04:31:40;11.65;;;9.25;;
61093;SDS011;46976;52.942;6.810;2023-09-07T04:34:06;12.52;;;10.15;;
61093;SDS011;46976;52.942;6.810;2023-09-07T04:36:32;13.90;;;10.00;;
61093;SDS011;46976;52.942;6.810;2023-09-07T04:38:58;13.07;;;10.50;;
61093;SDS011;46976;52.942;6.810;2023-09-07T04:41:24;12.63;;;10.05;;
61093;SDS011;46976;52.942;6.810;2023-09-07T04:43:50;13.18;;;10.20;;
61093;SDS011;46976;52.942;6.810;2023-09-07T04:46:15;12.30;;;10.38;;
61093;SDS011;46976;52.942;6.810;2023-09-07T04:48:42;13.32;;;10.85;;
61093;SDS011;46976;52.942;6.810;2023-09-07T04:51:09;13.13;;;9.98;;
61093;SDS011;46976;52.942;6.810;2023-09-07T04:53:36;12.70;;;10.80;;
61093;SDS011;46976;52.942;6.810;2023-09-07T04:56:02;13.23;;;10.77;;
61093;SDS011;46976;52.942;6.810;2023-09-07T04:58:29;12.73;;;10.52;;
61093;SDS011;46976;52.942;6.810;2023-09-07T05:01:01;13.00;;;11.05;;
61093;SDS011;46976;52.942;6.810;2023-09-07T05:03:29;14.48;;;11.50;;
61093;SDS011;46976;52.942;6.810;2023-09-07T05:05:55;13.52;;;11.05;;
61093;SDS011;46976;52.942;6.810;2023-09-07T05:08:21;13.98;;;10.75;;
61093;SDS011;46976;52.942;6.810;2023-09-07T05:10:54;11.88;;;10.18;;
61093;SDS011;46976;52.942;6.810;2023-09-07T05:13:27;13.60;;;11.02;;
61093;SDS011;46976;52.942;6.810;2023-09-07T05:15:53;11.93;;;10.32;;
61093;SDS011;46976;52.942;6.810;2023-09-07T05:18:19;15.57;;;11.25;;
61093;SDS011;46976;52.942;6.810;2023-09-07T05:20:45;12.32;;;10.45;;
61093;SDS011;46976;52.942;6.810;2023-09-07T05:23:13;13.87;;;10.80;;
61093;SDS011;46976;52.942;6.810;2023-09-07T05:25:44;12.10;;;10.60;;
61093;SDS011;46976;52.942;6.810;2023-09-07T05:28:14;11.77;;;9.90;;
61093;SDS011;46976;52.942;6.810;2023-09-07T05:30:41;12.73;;;10.05;;
61093;SDS011;46976;52.942;6.810;2023-09-07T05:33:09;14.00;;;10.50;;
61093;SDS011;46976;52.942;6.810;2023-09-07T05:35:35;12.98;;;10.35;;
61093;SDS011;46976;52.942;6.810;2023-09-07T05:38:01;13.80;;;9.90;;
61093;SDS011;46976;52.942;6.810;2023-09-07T05:40:28;14.85;;;10.73;;
61093;SDS011;46976;52.942;6.810;2023-09-07T05:42:53;12.52;;;10.10;;
61093;SDS011;46976;52.942;6.810;2023-09-07T05:45:19;12.40;;;9.60;;
61093;SDS011;46976;52.942;6.810;2023-09-07T05:47:45;13.52;;;9.77;;
61093;SDS011;46976;52.942;6.810;2023-09-07T05:50:11;11.95;;;9.95;;
61093;SDS011;46976;52.942;6.810;2023-09-07T05:52:37;13.00;;;10.27;;
61093;SDS011;46976;52.942;6.810;2023-09-07T05:55:02;13.30;;;10.35;;
61093;SDS011;46976;52.942;6.810;2023-09-07T05:57:28;13.35;;;9.55;;
61093;SDS011;46976;52.942;6.810;2023-09-07T05:59:54;12.50;;;9.95;;
61093;SDS011;46976;52.942;6.810;2023-09-07T06:02:20;12.27;;;9.70;;
61093;SDS011;46976;52.942;6.810;2023-09-07T06:04:45;12.77;;;8.27;;
61093;SDS011;46976;52.942;6.810;2023-09-07T06:07:11;13.27;;;10.35;;
61093;SDS011;46976;52.942;6.810;2023-09-07T06:09:37;12.45;;;9.55;;
61093;SDS011;46976;52.942;6.810;2023-09-07T06:12:02;11.25;;;9.23;;
61093;SDS011;46976;52.942;6.810;2023-09-07T06:14:28;13.27;;;10.13;;
61093;SDS011;46976;52.942;6.810;2023-09-07T06:16:54;13.57;;;10.65;;
61093;SDS011;46976;52.942;6.810;2023-09-07T06:19:20;13.38;;;10.45;;
61093;SDS011;46976;52.942;6.810;2023-09-07T06:21:45;12.32;;;9.88;;
61093;SDS011;46976;52.942;6.810;2023-09-07T06:24:11;14.18;;;9.82;;
61093;SDS011;46976;52.942;6.810;2023-09-07T06:26:37;12.95;;;9.90;;
61093;SDS011;46976;52.942;6.810;2023-09-07T06:29:02;11.55;;;9.55;;
61093;SDS011;46976;52.942;6.810;2023-09-07T06:31:28;11.80;;;9.32;;
61093;SDS011;46976;52.942;6.810;2023-09-07T06:33:54;13.32;;;10.18;;
61093;SDS011;46976;52.942;6.810;2023-09-07T06:36:19;11.77;;;9.43;;
61093;SDS011;46976;52.942;6.810;2023-09-07T06:38:45;12.80;;;9.70;;
61093;SDS011;46976;52.942;6.810;2023-09-07T06:41:11;12.68;;;8.65;;
61093;SDS011;46976;52.942;6.810;2023-09-07T06:43:37;12.85;;;10.02;;
61093;SDS011;46976;52.942;6.810;2023-09-07T06:46:06;12.43;;;10.65;;
61093;SDS011;46976;52.942;6.810;2023-09-07T06:48:34;13.82;;;10.45;;
61093;SDS011;46976;52.942;6.810;2023-09-07T06:51:04;12.60;;;10.02;;
61093;SDS011;46976;52.942;6.810;2023-09-07T06:53:31;12.65;;;9.88;;
61093;SDS011;46976;52.942;6.810;2023-09-07T06:56:00;12.90;;;10.18;;
61093;SDS011;46976;52.942;6.810;2023-09-07T06:58:27;14.82;;;10.98;;
61093;SDS011;46976;52.942;6.810;2023-09-07T07:00:56;12.32;;;9.13;;
61093;SDS011;46976;52.942;6.810;2023-09-07T07:03:27;12.45;;;10.45;;
61093;SDS011;46976;52.942;6.810;2023-09-07T07:05:54;14.15;;;10.25;;
61093;SDS011;46976;52.942;6.810;2023-09-07T07:08:20;13.55;;;10.15;;
61093;SDS011;46976;52.942;6.810;2023-09-07T07:10:46;13.20;;;9.93;;
61093;SDS011;46976;52.942;6.810;2023-09-07T07:13:12;13.75;;;10.88;;
61093;SDS011;46976;52.942;6.810;2023-09-07T07:15:37;12.30;;;10.02;;
61093;SDS011;46976;52.942;6.810;2023-09-07T07:18:03;12.00;;;9.57;;
61093;SDS011;46976;52.942;6.810;2023-09-07T07:20:37;13.27;;;9.30;;
61093;SDS011;46976;52.942;6.810;2023-09-07T07:23:03;13.07;;;9.68;;
61093;SDS011;46976;52.942;6.810;2023-09-07T07:25:31;12.65;;;9.63;;
61093;SDS011;46976;52.942;6.810;2023-09-07T07:27:58;12.30;;;9.02;;
61093;SDS011;46976;52.942;6.810;2023-09-07T07:30:34;11.75;;;9.25;;
61093;SDS011;46976;52.942;6.810;2023-09-07T07:33:01;12.70;;;9.25;;
61093;SDS011;46976;52.942;6.810;2023-09-07T07:35:28;10.73;;;8.48;;
61093;SDS011;46976;52.942;6.810;2023-09-07T07:37:58;11.32;;;8.50;;
61093;SDS011;46976;52.942;6.810;2023-09-07T07:40:23;11.85;;;8.38;;
61093;SDS011;46976;52.942;6.810;2023-09-07T07:42:51;10.52;;;6.95;;
61093;SDS011;46976;52.942;6.810;2023-09-07T07:47:48;9.60;;;6.85;;
61093;SDS011;46976;52.942;6.810;2023-09-07T07:50:14;10.40;;;7.72;;
61093;SDS011;46976;52.942;6.810;2023-09-07T07:52:39;9.73;;;6.65;;
61093;SDS011;46976;52.942;6.810;2023-09-07T07:55:05;9.38;;;6.50;;
61093;SDS011;46976;52.942;6.810;2023-09-07T07:57:31;8.93;;;6.47;;
61093;SDS011;46976;52.942;6.810;2023-09-07T07:59:57;10.45;;;6.25;;
61093;SDS011;46976;52.942;6.810;2023-09-07T08:02:23;9.05;;;6.38;;
61093;SDS011;46976;52.942;6.810;2023-09-07T08:04:49;9.63;;;6.15;;
61093;SDS011;46976;52.942;6.810;2023-09-07T08:07:14;9.35;;;6.65;;
61093;SDS011;46976;52.942;6.810;2023-09-07T08:09:40;9.70;;;6.05;;
61093;SDS011;46976;52.942;6.810;2023-09-07T08:12:06;9.60;;;6.55;;
61093;SDS011;46976;52.942;6.810;2023-09-07T08:14:32;10.73;;;6.85;;
61093;SDS011;46976;52.942;6.810;2023-09-07T08:16:58;8.82;;;6.18;;
61093;SDS011;46976;52.942;6.810;2023-09-07T08:19:24;9.82;;;5.72;;
61093;SDS011;46976;52.942;6.810;2023-09-07T08:21:50;8.90;;;5.95;;
61093;SDS011;46976;52.942;6.810;2023-09-07T08:24:16;9.02;;;5.90;;
61093;SDS011;46976;52.942;6.810;2023-09-07T08:26:43;8.77;;;5.90;;
61093;SDS011;46976;52.942;6.810;2023-09-07T08:29:09;8.82;;;5.82;;
61093;SDS011;46976;52.942;6.810;2023-09-07T08:31:36;9.77;;;6.70;;
61093;SDS011;46976;52.942;6.810;2023-09-07T08:34:04;8.27;;;5.82;;
61093;SDS011;46976;52.942;6.810;2023-09-07T08:36:30;10.02;;;5.80;;
61093;SDS011;46976;52.942;6.810;2023-09-07T08:39:05;9.95;;;5.70;;
61093;SDS011;46976;52.942;6.810;2023-09-07T08:41:36;9.82;;;5.82;;
61093;SDS011;46976;52.942;6.810;2023-09-07T08:44:07;9.93;;;5.70;;
61093;SDS011;46976;52.942;6.810;2023-09-07T08:46:34;9.67;;;6.33;;
61093;SDS011;46976;52.942;6.810;2023-09-07T08:49:01;8.63;;;5.38;;
61093;SDS011;46976;52.942;6.810;2023-09-07T08:51:28;9.05;;;4.75;;
61093;SDS011;46976;52.942;6.810;2023-09-07T08:53:53;8.27;;;5.35;;
61093;SDS011;46976;52.942;6.810;2023-09-07T08:56:21;8.68;;;5.60;;
61093;SDS011;46976;52.942;6.810;2023-09-07T08:58:48;8.45;;;5.07;;
61093;SDS011;46976;52.942;6.810;2023-09-07T09:01:16;8.57;;;5.50;;
61093;SDS011;46976;52.942;6.810;2023-09-07T09:03:43;9.02;;;5.35;;
61093;SDS011;46976;52.942;6.810;2023-09-07T09:06:09;9.77;;;5.43;;
61093;SDS011;46976;52.942;6.810;2023-09-07T09:08:42;8.77;;;5.47;;
61093;SDS011;46976;52.942;6.810;2023-09-07T09:11:12;8.68;;;5.75;;
61093;SDS011;46976;52.942;6.810;2023-09-07T09:13:39;7.88;;;4.82;;
61093;SDS011;46976;52.942;6.810;2023-09-07T09:18:31;11.23;;;5.28;;
61093;SDS011;46976;52.942;6.810;2023-09-07T09:20:57;9.65;;;5.35;;
61093;SDS011;46976;52.942;6.810;2023-09-07T09:23:24;9.30;;;4.88;;
61093;SDS011;46976;52.942;6.810;2023-09-07T09:25:55;8.05;;;4.65;;
61093;SDS011;46976;52.942;6.810;2023-09-07T09:28:21;9.75;;;5.03;;
61093;SDS011;46976;52.942;6.810;2023-09-07T09:30:47;7.30;;;4.47;;
61093;SDS011;46976;52.942;6.810;2023-09-07T09:33:14;8.35;;;4.90;;
61093;SDS011;46976;52.942;6.810;2023-09-07T09:35:42;8.68;;;4.90;;
61093;SDS011;46976;52.942;6.810;2023-09-07T09:38:08;8.60;;;4.38;;
61093;SDS011;46976;52.942;6.810;2023-09-07T09:40:35;8.80;;;4.47;;
61093;SDS011;46976;52.942;6.810;2023-09-07T09:43:04;11.43;;;4.78;;
61093;SDS011;46976;52.942;6.810;2023-09-07T09:45:31;8.82;;;4.85;;
61093;SDS011;46976;52.942;6.810;2023-09-07T09:47:58;9.00;;;4.53;;
61093;SDS011;46976;52.942;6.810;2023-09-07T09:50:27;8.38;;;4.70;;
61093;SDS011;46976;52.942;6.810;2023-09-07T09:52:53;8.23;;;4.38;;
61093;SDS011;46976;52.942;6.810;2023-09-07T09:55:19;9.63;;;4.53;;
61093;SDS011;46976;52.942;6.810;2023-09-07T09:57:46;8.43;;;4.40;;
61093;SDS011;46976;52.942;6.810;2023-09-07T10:00:12;8.23;;;4.95;;
61093;SDS011;46976;52.942;6.810;2023-09-07T10:05:38;7.83;;;4.00;;
61093;SDS011;46976;52.942;6.810;2023-09-07T10:08:11;7.88;;;4.30;;
61093;SDS011;46976;52.942;6.810;2023-09-07T10:10:38;7.32;;;4.32;;
61093;SDS011;46976;52.942;6.810;2023-09-07T10:13:06;8.70;;;4.50;;
61093;SDS011;46976;52.942;6.810;2023-09-07T10:15:32;7.32;;;4.30;;
61093;SDS011;46976;52.942;6.810;2023-09-07T10:20:56;7.60;;;4.30;;
61093;SDS011;46976;52.942;6.810;2023-09-07T10:23:35;8.13;;;4.45;;
61093;SDS011;46976;52.942;6.810;2023-09-07T10:26:14;8.80;;;4.57;;
61093;SDS011;46976;52.942;6.810;2023-09-07T10:28:41;8.70;;;4.18;;
61093;SDS011;46976;52.942;6.810;2023-09-07T10:31:18;7.40;;;4.10;;
61093;SDS011;46976;52.942;6.810;2023-09-07T10:33:45;7.10;;;4.05;;
61093;SDS011;46976;52.942;6.810;2023-09-07T10:36:21;8.88;;;4.10;;
61093;SDS011;46976;52.942;6.810;2023-09-07T10:38:48;7.15;;;3.88;;
61093;SDS011;46976;52.942;6.810;2023-09-07T10:41:14;8.98;;;4.22;;
61093;SDS011;46976;52.942;6.810;2023-09-07T10:43:47;7.30;;;4.05;;
61093;SDS011;46976;52.942;6.810;2023-09-07T10:46:14;7.57;;;3.70;;
61093;SDS011;46976;52.942;6.810;2023-09-07T10:48:39;7.00;;;4.00;;
61093;SDS011;46976;52.942;6.810;2023-09-07T10:51:05;8.48;;;3.80;;
61093;SDS011;46976;52.942;6.810;2023-09-07T10:53:32;7.32;;;3.58;;
61093;SDS011;46976;52.942;6.810;2023-09-07T10:56:07;7.68;;;3.42;;
61093;SDS011;46976;52.942;6.810;2023-09-07T10:58:33;8.32;;;3.70;;
61093;SDS011;46976;52.942;6.810;2023-09-07T11:01:00;7.20;;;3.83;;
61093;SDS011;46976;52.942;6.810;2023-09-07T11:03:28;7.35;;;3.65;;
61093;SDS011;46976;52.942;6.810;2023-09-07T11:05:55;6.53;;;3.45;;
61093;SDS011;46976;52.942;6.810;2023-09-07T11:08:31;8.60;;;3.45;;
61093;SDS011;46976;52.942;6.810;2023-09-07T11:10:58;8.77;;;3.80;;
61093;SDS011;46976;52.942;6.810;2023-09-07T11:13:24;7.30;;;3.40;;
61093;SDS011;46976;52.942;6.810;2023-09-07T11:15:52;6.70;;;3.40;;
61093;SDS011;46976;52.942;6.810;2023-09-07T11:18:20;7.22;;;3.50;;
61093;SDS011;46976;52.942;6.810;2023-09-07T11:20:49;6.20;;;3.25;;
61093;SDS011;46976;52.942;6.810;2023-09-07T11:23:16;7.13;;;3.50;;
61093;SDS011;46976;52.942;6.810;2023-09-07T11:25:43;7.10;;;3.70;;
61093;SDS011;46976;52.942;6.810;2023-09-07T11:28:09;7.15;;;3.72;;
61093;SDS011;46976;52.942;6.810;2023-09-07T11:30:48;7.78;;;3.70;;
61093;SDS011;46976;52.942;6.810;2023-09-07T11:33:18;7.38;;;4.00;;
61093;SDS011;46976;52.942;6.810;2023-09-07T11:35:46;7.85;;;4.00;;
61093;SDS011;46976;52.942;6.810;2023-09-07T11:38:12;7.55;;;3.97;;
61093;SDS011;46976;52.942;6.810;2023-09-07T11:40:39;8.75;;;4.22;;
61093;SDS011;46976;52.942;6.810;2023-09-07T11:43:07;6.90;;;3.83;;
61093;SDS011;46976;52.942;6.810;2023-09-07T11:45:33;8.35;;;3.97;;
61093;SDS011;46976;52.942;6.810;2023-09-07T11:47:59;8.23;;;3.78;;
61093;SDS011;46976;52.942;6.810;2023-09-07T11:50:24;7.55;;;3.67;;
61093;SDS011;46976;52.942;6.810;2023-09-07T11:52:50;6.53;;;3.65;;
61093;SDS011;46976;52.942;6.810;2023-09-07T11:55:16;7.13;;;3.75;;
61093;SDS011;46976;52.942;6.810;2023-09-07T11:57:42;6.68;;;3.50;;
61093;SDS011;46976;52.942;6.810;2023-09-07T12:00:08;8.70;;;3.90;;
61093;SDS011;46976;52.942;6.810;2023-09-07T12:02:38;7.82;;;3.92;;
61093;SDS011;46976;52.942;6.810;2023-09-07T12:05:04;8.43;;;3.90;;
61093;SDS011;46976;52.942;6.810;2023-09-07T12:07:33;8.85;;;4.03;;
61093;SDS011;46976;52.942;6.810;2023-09-07T12:09:59;7.90;;;4.00;;
61093;SDS011;46976;52.942;6.810;2023-09-07T12:12:25;8.60;;;4.07;;
61093;SDS011;46976;52.942;6.810;2023-09-07T12:14:51;10.23;;;4.10;;
61093;SDS011;46976;52.942;6.810;2023-09-07T12:17:16;7.40;;;3.88;;
61093;SDS011;46976;52.942;6.810;2023-09-07T12:19:43;6.93;;;4.00;;
61093;SDS011;46976;52.942;6.810;2023-09-07T12:22:11;6.65;;;3.60;;
61093;SDS011;46976;52.942;6.810;2023-09-07T12:24:37;7.60;;;3.97;;
61093;SDS011;46976;52.942;6.810;2023-09-07T12:27:02;9.70;;;3.60;;
61093;SDS011;46976;52.942;6.810;2023-09-07T12:29:29;7.70;;;3.63;;
61093;SDS011;46976;52.942;6.810;2023-09-07T12:31:54;6.93;;;3.70;;
61093;SDS011;46976;52.942;6.810;2023-09-07T12:34:20;7.18;;;3.92;;
61093;SDS011;46976;52.942;6.810;2023-09-07T12:36:46;6.70;;;3.75;;
61093;SDS011;46976;52.942;6.810;2023-09-07T12:39:11;6.47;;;3.53;;
61093;SDS011;46976;52.942;6.810;2023-09-07T12:41:38;7.15;;;3.70;;
61093;SDS011;46976;52.942;6.810;2023-09-07T12:44:04;7.22;;;3.67;;
61093;SDS011;46976;52.942;6.810;2023-09-07T12:46:31;6.90;;;3.58;;
61093;SDS011;46976;52.942;6.810;2023-09-07T12:48:57;9.13;;;4.07;;
61093;SDS011;46976;52.942;6.810;2023-09-07T12:51:22;6.55;;;4.00;;
61093;SDS011;46976;52.942;6.810;2023-09-07T12:53:48;7.28;;;3.60;;
61093;SDS011;46976;52.942;6.810;2023-09-07T12:56:13;6.85;;;3.67;;
61093;SDS011;46976;52.942;6.810;2023-09-07T12:58:41;7.65;;;4.00;;
61093;SDS011;46976;52.942;6.810;2023-09-07T13:01:07;7.50;;;3.70;;
61093;SDS011;46976;52.942;6.810;2023-09-07T13:03:35;7.32;;;3.85;;
61093;SDS011;46976;52.942;6.810;2023-09-07T13:06:04;6.75;;;3.63;;
61093;SDS011;46976;52.942;6.810;2023-09-07T13:08:29;6.85;;;3.60;;
61093;SDS011;46976;52.942;6.810;2023-09-07T13:10:55;6.50;;;3.35;;
61093;SDS011;46976;52.942;6.810;2023-09-07T13:13:22;7.35;;;3.33;;
61093;SDS011;46976;52.942;6.810;2023-09-07T13:15:51;6.97;;;3.30;;
61093;SDS011;46976;52.942;6.810;2023-09-07T13:18:16;6.03;;;3.47;;
61093;SDS011;46976;52.942;6.810;2023-09-07T13:20:42;11.43;;;3.45;;
61093;SDS011;46976;52.942;6.810;2023-09-07T13:23:08;7.80;;;3.80;;
61093;SDS011;46976;52.942;6.810;2023-09-07T13:25:33;7.85;;;3.50;;
61093;SDS011;46976;52.942;6.810;2023-09-07T13:27:59;6.82;;;3.72;;
61093;SDS011;46976;52.942;6.810;2023-09-07T13:30:24;5.32;;;3.20;;
61093;SDS011;46976;52.942;6.810;2023-09-07T13:32:50;6.82;;;3.50;;
61093;SDS011;46976;52.942;6.810;2023-09-07T13:35:16;6.63;;;3.50;;
61093;SDS011;46976;52.942;6.810;2023-09-07T13:37:42;6.63;;;3.63;;
61093;SDS011;46976;52.942;6.810;2023-09-07T13:40:07;7.53;;;3.63;;
61093;SDS011;46976;52.942;6.810;2023-09-07T13:42:33;6.50;;;3.47;;
61093;SDS011;46976;52.942;6.810;2023-09-07T13:44:59;8.77;;;3.37;;
61093;SDS011;46976;52.942;6.810;2023-09-07T13:47:25;7.80;;;3.77;;
61093;SDS011;46976;52.942;6.810;2023-09-07T13:49:51;6.67;;;3.70;;
61093;SDS011;46976;52.942;6.810;2023-09-07T13:52:16;6.90;;;3.40;;
61093;SDS011;46976;52.942;6.810;2023-09-07T13:54:42;8.23;;;3.20;;
61093;SDS011;46976;52.942;6.810;2023-09-07T13:57:08;6.43;;;3.37;;
61093;SDS011;46976;52.942;6.810;2023-09-07T13:59:33;6.77;;;3.03;;
61093;SDS011;46976;52.942;6.810;2023-09-07T14:02:01;6.25;;;3.13;;
61093;SDS011;46976;52.942;6.810;2023-09-07T14:04:26;7.17;;;3.20;;
61093;SDS011;46976;52.942;6.810;2023-09-07T14:06:52;6.67;;;3.30;;
61093;SDS011;46976;52.942;6.810;2023-09-07T14:09:18;7.10;;;3.30;;
61093;SDS011;46976;52.942;6.810;2023-09-07T14:11:44;7.07;;;3.30;;
61093;SDS011;46976;52.942;6.810;2023-09-07T14:14:12;5.87;;;3.20;;
61093;SDS011;46976;52.942;6.810;2023-09-07T14:16:38;6.78;;;3.55;;
61093;SDS011;46976;52.942;6.810;2023-09-07T14:19:03;6.87;;;3.10;;
61093;SDS011;46976;52.942;6.810;2023-09-07T14:21:29;6.10;;;3.50;;
61093;SDS011;46976;52.942;6.810;2023-09-07T14:23:55;7.67;;;3.50;;
61093;SDS011;46976;52.942;6.810;2023-09-07T14:26:20;8.05;;;3.33;;
61093;SDS011;46976;52.942;6.810;2023-09-07T14:28:46;8.23;;;3.53;;
61093;SDS011;46976;52.942;6.810;2023-09-07T14:31:11;7.43;;;3.33;;
61093;SDS011;46976;52.942;6.810;2023-09-07T14:33:37;8.40;;;3.80;;
61093;SDS011;46976;52.942;6.810;2023-09-07T14:36:04;7.03;;;3.65;;
61093;SDS011;46976;52.942;6.810;2023-09-07T14:38:31;6.95;;;3.53;;
61093;SDS011;46976;52.942;6.810;2023-09-07T14:40:59;6.95;;;3.53;;
61093;SDS011;46976;52.942;6.810;2023-09-07T14:43:25;7.80;;;3.67;;
61093;SDS011;46976;52.942;6.810;2023-09-07T14:45:51;7.75;;;3.50;;
61093;SDS011;46976;52.942;6.810;2023-09-07T14:48:17;7.07;;;3.40;;